Time;durP1;ratioP1;P1;durP2;ratioP2;P2;SDS_P1;SDS_P2;PMS_P1;PMS_P2;Temp;Humidity;BMP_temperature;BMP_pressure;BME280_temperature;BME280_humidity;BME280_pressure;Samples;Min_cycle;Max_cycle;Signal;HPM_P1;HPM_P2
2021/09/29 00:02:14;;;;;;;6.22;3.30;;;11.30;87.50;;;;;;5055574;28;20020;-47
2021/09/29 00:04:40;;;;;;;10.85;3.47;;;11.30;87.50;;;;;;5055339;28;20418;-51
2021/09/29 00:07:06;;;;;;;15.15;3.85;;;11.30;87.60;;;;;;5055655;28;20029;-46
2021/09/29 00:09:31;;;;;;;10.65;3.38;;;11.20;87.70;;;;;;5055118;28;20163;-47
2021/09/29 00:11:57;;;;;;;9.70;2.95;;;11.20;87.70;;;;;;5053784;28;20087;-48
2021/09/29 00:14:23;;;;;;;10.05;3.53;;;11.30;87.50;;;;;;5055184;28;20025;-48
2021/09/29 00:16:49;;;;;;;8.80;3.90;;;11.30;87.60;;;;;;5054950;28;20025;-50
2021/09/29 00:19:15;;;;;;;11.63;3.85;;;11.30;87.70;;;;;;5054950;28;20100;-48
2021/09/29 00:21:41;;;;;;;7.78;4.18;;;11.30;87.60;;;;;;5055843;28;20025;-48
2021/09/29 00:24:06;;;;;;;8.05;3.70;;;11.30;87.50;;;;;;5054967;28;20072;-48
2021/09/29 00:26:32;;;;;;;15.32;4.78;;;11.30;87.50;;;;;;5053753;28;20044;-48
2021/09/29 00:28:58;;;;;;;11.43;4.00;;;11.30;87.60;;;;;;5053720;28;20025;-48
2021/09/29 00:31:33;;;;;;;7.43;4.10;;;11.30;87.50;;;;;;5054886;28;20408;-52
2021/09/29 00:34:36;;;;;;;11.30;3.88;;;11.30;87.40;;;;;;5054863;28;20455;-51
2021/09/29 00:36:52;;;;;;;11.43;3.38;;;11.30;87.30;;;;;;5055192;28;20041;-47
2021/09/29 00:39:19;;;;;;;11.73;3.30;;;11.30;87.40;;;;;;5054579;28;20124;-47
2021/09/29 00:41:46;;;;;;;10.73;3.97;;;11.30;87.30;;;;;;5053375;28;20029;-47
2021/09/29 00:44:12;;;;;;;10.60;4.32;;;11.30;87.30;;;;;;5054269;28;20067;-48
2021/09/29 00:46:39;;;;;;;9.07;3.58;;;11.30;87.30;;;;;;5054284;28;20037;-47
2021/09/29 00:49:04;;;;;;;10.57;3.33;;;11.30;87.40;;;;;;5054383;28;20025;-47
2021/09/29 00:51:32;;;;;;;7.88;3.70;;;11.30;87.40;;;;;;5054075;28;20488;-48
2021/09/29 00:53:58;;;;;;;13.63;4.22;;;11.30;87.30;;;;;;5054159;28;20048;-46
2021/09/29 00:56:24;;;;;;;16.55;4.40;;;11.30;87.50;;;;;;5052600;28;20477;-47
2021/09/29 00:58:49;;;;;;;6.25;3.65;;;11.20;87.60;;;;;;5053892;28;20053;-50
2021/09/29 01:01:16;;;;;;;11.25;3.53;;;11.20;88.00;;;;;;5053820;28;20021;-51
2021/09/29 01:03:44;;;;;;;8.10;3.22;;;11.20;87.80;;;;;;5053881;28;20108;-49
2021/09/29 01:06:25;;;;;;;13.75;5.03;;;11.20;87.80;;;;;;5053650;28;20013;-51
2021/09/29 01:09:01;;;;;;;8.13;3.30;;;11.10;87.90;;;;;;5053514;28;20025;-48
2021/09/29 01:11:59;;;;;;;8.23;3.75;;;11.10;88.00;;;;;;5054186;28;20096;-47
2021/09/29 01:14:46;;;;;;;8.82;3.33;;;11.10;88.10;;;;;;5052196;28;20021;-48
2021/09/29 01:17:14;;;;;;;8.80;3.40;;;11.10;88.10;;;;;;5053529;28;20060;-48
2021/09/29 01:20:03;;;;;;;10.50;3.13;;;11.10;88.20;;;;;;5053926;28;20025;-49
2021/09/29 01:22:39;;;;;;;9.13;3.25;;;11.10;88.20;;;;;;5053645;28;20025;-50
2021/09/29 01:25:08;;;;;;;7.10;3.38;;;11.10;88.10;;;;;;5052050;28;20021;-52
2021/09/29 01:27:36;;;;;;;9.18;3.38;;;11.10;88.10;;;;;;5053308;28;20099;-48
2021/09/29 01:30:02;;;;;;;6.70;3.20;;;11.20;88.10;;;;;;5053290;28;20119;-49
2021/09/29 01:32:29;;;;;;;7.22;3.22;;;11.10;88.00;;;;;;5053408;28;20025;-46
2021/09/29 01:34:55;;;;;;;8.27;4.70;;;11.10;88.10;;;;;;5053136;28;20058;-46
2021/09/29 01:37:21;;;;;;;5.50;3.30;;;11.10;88.20;;;;;;5053391;28;20025;-48
2021/09/29 01:39:47;;;;;;;8.65;3.25;;;11.10;88.10;;;;;;5053297;28;20228;-45
2021/09/29 01:42:13;;;;;;;14.15;3.97;;;11.10;88.10;;;;;;5053158;28;20516;-45
2021/09/29 01:44:39;;;;;;;15.45;5.25;;;11.10;87.90;;;;;;5053639;28;20017;-46
2021/09/29 01:47:05;;;;;;;10.40;3.63;;;11.00;88.10;;;;;;5053296;28;20102;-46
2021/09/29 01:49:48;;;;;;;8.50;4.32;;;11.10;88.10;;;;;;5051823;28;20033;-47
2021/09/29 01:52:19;;;;;;;12.00;3.78;;;11.00;88.30;;;;;;5052979;28;20028;-51
2021/09/29 01:54:48;;;;;;;6.93;3.40;;;11.00;88.20;;;;;;5053087;28;20041;-45
2021/09/29 01:57:16;;;;;;;6.73;3.10;;;11.00;88.20;;;;;;5052876;28;20041;-47
2021/09/29 01:59:43;;;;;;;17.02;3.53;;;11.00;88.10;;;;;;5052875;28;20052;-49
2021/09/29 02:02:10;;;;;;;11.77;4.22;;;11.00;88.20;;;;;;5053056;28;20021;-49
2021/09/29 02:04:41;;;;;;;8.15;4.00;;;11.00;88.30;;;;;;5052806;28;20021;-47
2021/09/29 02:07:07;;;;;;;7.22;3.50;;;11.10;88.20;;;;;;5051454;28;20028;-48
2021/09/29 02:09:32;;;;;;;10.70;3.53;;;11.10;88.10;;;;;;5053062;28;20430;-47
2021/09/29 02:11:58;;;;;;;7.60;3.88;;;11.10;88.00;;;;;;5052751;28;20341;-49
2021/09/29 02:14:25;;;;;;;10.40;3.35;;;11.10;88.10;;;;;;5052750;28;20032;-48
2021/09/29 02:16:53;;;;;;;8.50;3.40;;;11.20;88.00;;;;;;5051730;28;20446;-48
2021/09/29 02:19:20;;;;;;;8.02;3.88;;;11.20;88.00;;;;;;5052520;28;20021;-47
2021/09/29 02:21:46;;;;;;;10.15;3.78;;;11.20;87.90;;;;;;5052185;28;20021;-48
2021/09/29 02:24:12;;;;;;;8.90;3.25;;;11.10;87.90;;;;;;5052929;28;20037;-47
2021/09/29 02:26:38;;;;;;;8.95;3.88;;;11.20;87.90;;;;;;5052631;28;20029;-48
2021/09/29 02:29:06;;;;;;;11.70;3.75;;;11.20;87.90;;;;;;5052549;28;20065;-48
2021/09/29 02:31:32;;;;;;;9.43;3.65;;;11.20;87.90;;;;;;5052626;28;20044;-48
2021/09/29 02:33:58;;;;;;;7.50;3.33;;;11.20;87.80;;;;;;5053006;28;20029;-46
2021/09/29 02:36:24;;;;;;;7.40;3.78;;;11.20;87.70;;;;;;5052539;28;20059;-49
2021/09/29 02:38:51;;;;;;;7.28;3.28;;;11.20;87.90;;;;;;5052960;28;20037;-49
2021/09/29 02:41:19;;;;;;;6.85;3.22;;;11.20;87.80;;;;;;5052980;28;20094;-47
2021/09/29 02:43:45;;;;;;;10.00;3.45;;;11.20;87.80;;;;;;5052540;28;20071;-47
2021/09/29 02:46:11;;;;;;;7.70;3.22;;;11.20;87.90;;;;;;5051632;28;20021;-48
2021/09/29 02:48:37;;;;;;;11.68;3.88;;;11.20;87.90;;;;;;5051268;28;20028;-52
2021/09/29 02:51:03;;;;;;;10.77;3.72;;;11.30;87.90;;;;;;5052570;28;20033;-49
2021/09/29 02:53:29;;;;;;;9.48;3.33;;;11.30;88.00;;;;;;5052697;28;20027;-49
2021/09/29 02:56:00;;;;;;;11.15;3.33;;;11.20;87.90;;;;;;5051014;28;20386;-47
2021/09/29 02:58:26;;;;;;;7.45;3.80;;;11.20;87.90;;;;;;5052595;28;20385;-49
2021/09/29 03:00:53;;;;;;;6.05;3.30;;;11.20;88.00;;;;;;5052322;28;20032;-47
2021/09/29 03:03:20;;;;;;;9.15;3.15;;;11.30;88.00;;;;;;5052243;28;20021;-47
2021/09/29 03:05:46;;;;;;;7.80;3.33;;;11.30;87.90;;;;;;5053261;28;20040;-48
2021/09/29 03:08:12;;;;;;;12.35;3.30;;;11.30;87.70;;;;;;5052432;28;20025;-47
2021/09/29 03:10:40;;;;;;;7.03;2.55;;;11.30;87.50;;;;;;5052189;28;20021;-47
2021/09/29 03:13:10;;;;;;;11.23;3.40;;;11.40;87.50;;;;;;5050939;28;20021;-47
2021/09/29 03:15:36;;;;;;;8.13;3.85;;;11.40;87.50;;;;;;5052220;28;20035;-47
2021/09/29 03:18:03;;;;;;;14.20;4.05;;;11.40;87.30;;;;;;5052334;28;20029;-48
2021/09/29 03:20:28;;;;;;;11.25;3.08;;;11.40;87.30;;;;;;5052313;28;20087;-51
2021/09/29 03:22:55;;;;;;;5.22;3.08;;;11.40;87.30;;;;;;5052438;28;20025;-48
2021/09/29 03:25:21;;;;;;;12.55;4.88;;;11.50;87.10;;;;;;5052282;28;20035;-47
2021/09/29 03:27:48;;;;;;;7.43;3.25;;;11.50;87.10;;;;;;5050892;28;20083;-50
2021/09/29 03:30:14;;;;;;;9.43;2.75;;;11.50;86.90;;;;;;5052335;28;20036;-47
2021/09/29 03:32:39;;;;;;;8.30;2.63;;;11.60;86.70;;;;;;5053395;28;20089;-47
2021/09/29 03:35:06;;;;;;;9.27;3.67;;;11.60;86.50;;;;;;5055878;28;20037;-48
2021/09/29 03:37:32;;;;;;;8.95;2.50;;;11.70;86.40;;;;;;5055706;28;20043;-51
2021/09/29 03:39:58;;;;;;;6.70;2.47;;;11.70;86.20;;;;;;5055610;28;20438;-48
2021/09/29 03:42:25;;;;;;;5.15;2.60;;;11.70;86.20;;;;;;5055391;28;20025;-48
2021/09/29 03:44:51;;;;;;;3.97;2.08;;;11.70;85.90;;;;;;5055423;28;20024;-47
2021/09/29 03:47:17;;;;;;;6.28;3.13;;;11.70;85.70;;;;;;5055269;28;20100;-50
2021/09/29 03:49:43;;;;;;;16.88;3.92;;;11.70;85.70;;;;;;5055442;28;20108;-50
2021/09/29 03:52:08;;;;;;;10.77;2.60;;;11.70;85.50;;;;;;5055151;28;20345;-49
2021/09/29 03:54:34;;;;;;;8.52;3.03;;;11.80;84.80;;;;;;5054728;28;20040;-48
2021/09/29 03:57:00;;;;;;;5.35;2.70;;;11.80;84.50;;;;;;5055135;28;20155;-50
2021/09/29 03:59:26;;;;;;;7.53;2.53;;;11.80;84.50;;;;;;5054970;28;20090;-48
2021/09/29 04:01:52;;;;;;;11.45;2.90;;;11.90;84.90;;;;;;5055026;28;20093;-49
2021/09/29 04:04:18;;;;;;;8.77;2.75;;;11.80;84.60;;;;;;5054992;28;20480;-50
2021/09/29 04:06:45;;;;;;;4.47;1.83;;;11.90;84.00;;;;;;5054743;28;20035;-47
2021/09/29 04:09:11;;;;;;;3.80;2.47;;;12.00;84.10;;;;;;5054744;28;20167;-48
2021/09/29 04:11:38;;;;;;;4.78;2.03;;;12.00;83.90;;;;;;5054521;28;20052;-47
2021/09/29 04:14:03;;;;;;;15.10;2.38;;;12.00;83.70;;;;;;5054571;28;20473;-49
2021/09/29 04:16:29;;;;;;;7.88;3.08;;;12.10;83.30;;;;;;5054342;28;20160;-48
2021/09/29 04:18:56;;;;;;;5.40;2.50;;;12.10;83.00;;;;;;5054281;28;20082;-47
2021/09/29 04:21:22;;;;;;;7.70;2.50;;;12.10;82.60;;;;;;5054460;28;20533;-48
2021/09/29 04:23:47;;;;;;;8.05;2.78;;;12.20;82.60;;;;;;5053257;28;20028;-46
2021/09/29 04:26:13;;;;;;;8.20;3.42;;;12.20;82.40;;;;;;5054523;28;20028;-51
2021/09/29 04:28:39;;;;;;;6.25;3.28;;;12.30;82.10;;;;;;5054425;28;20025;-51
2021/09/29 04:31:05;;;;;;;7.75;2.63;;;12.30;82.00;;;;;;5054718;28;20033;-48
2021/09/29 04:33:30;;;;;;;5.65;2.15;;;12.30;82.00;;;;;;5054744;28;20078;-49
2021/09/29 04:35:56;;;;;;;6.10;2.35;;;12.30;81.90;;;;;;5054380;28;20448;-48
2021/09/29 04:38:22;;;;;;;8.98;3.22;;;12.30;81.80;;;;;;5054490;28;20492;-46
2021/09/29 04:40:48;;;;;;;7.75;2.50;;;12.30;81.70;;;;;;5054290;28;20043;-49
2021/09/29 04:43:14;;;;;;;3.55;2.00;;;12.30;81.80;;;;;;5054254;28;20083;-48
2021/09/29 04:45:40;;;;;;;2.53;2.22;;;12.30;81.90;;;;;;5054566;28;20032;-50
2021/09/29 04:48:07;;;;;;;12.27;3.08;;;12.30;81.50;;;;;;5054437;28;20025;-47
2021/09/29 04:50:33;;;;;;;5.30;2.70;;;12.30;81.50;;;;;;5054097;28;20032;-51
2021/09/29 04:52:59;;;;;;;9.02;3.05;;;12.40;81.50;;;;;;5054126;28;20025;-47
2021/09/29 04:55:25;;;;;;;4.68;2.25;;;12.40;81.60;;;;;;5054004;28;20526;-48
2021/09/29 04:57:51;;;;;;;7.07;2.25;;;12.40;81.40;;;;;;5053852;28;20116;-47
2021/09/29 05:00:18;;;;;;;7.53;2.65;;;12.40;81.30;;;;;;5054591;28;20028;-51
2021/09/29 05:02:45;;;;;;;21.83;4.90;;;12.40;81.50;;;;;;5053892;28;20025;-47
2021/09/29 05:05:12;;;;;;;6.05;2.75;;;12.30;81.90;;;;;;5053790;28;20100;-50
2021/09/29 05:07:42;;;;;;;4.80;2.55;;;12.20;82.40;;;;;;5053913;28;20028;-48
2021/09/29 05:10:16;;;;;;;6.38;2.90;;;12.20;82.30;;;;;;5053863;28;20107;-48
2021/09/29 05:12:42;;;;;;;5.95;3.25;;;12.00;82.90;;;;;;5053960;28;20523;-47
2021/09/29 05:15:08;;;;;;;4.97;2.40;;;12.00;83.00;;;;;;5052173;28;20029;-48
2021/09/29 05:17:34;;;;;;;13.93;3.95;;;12.00;83.00;;;;;;5054111;28;20098;-47
2021/09/29 05:19:59;;;;;;;5.75;2.88;;;12.00;83.00;;;;;;5053383;28;20036;-46
2021/09/29 05:22:25;;;;;;;10.23;2.92;;;12.00;83.10;;;;;;5053648;28;20507;-47
2021/09/29 05:24:51;;;;;;;11.95;2.55;;;12.00;83.20;;;;;;5053322;28;20127;-47
2021/09/29 05:27:16;;;;;;;5.63;2.53;;;12.10;83.20;;;;;;5053672;28;20029;-46
2021/09/29 05:29:48;;;;;;;6.68;2.63;;;12.10;82.70;;;;;;5053481;28;20036;-46
2021/09/29 05:32:13;;;;;;;9.63;2.90;;;12.10;82.60;;;;;;5053725;28;20055;-48
2021/09/29 05:34:39;;;;;;;7.95;2.60;;;12.00;82.80;;;;;;5053799;28;20477;-50
2021/09/29 05:37:05;;;;;;;4.00;2.30;;;12.10;82.60;;;;;;5053773;28;20090;-47
2021/09/29 05:39:30;;;;;;;6.10;2.78;;;12.20;82.30;;;;;;5053139;28;20115;-47
2021/09/29 05:41:57;;;;;;;10.05;2.65;;;12.20;82.10;;;;;;5053130;28;20021;-48
2021/09/29 05:44:22;;;;;;;8.38;3.00;;;12.30;81.90;;;;;;5053129;28;20024;-47
2021/09/29 05:46:48;;;;;;;10.82;4.10;;;12.30;81.50;;;;;;5053587;28;20033;-47
2021/09/29 05:49:14;;;;;;;6.43;2.60;;;12.30;81.60;;;;;;5055215;28;20032;-48
2021/09/29 05:51:55;;;;;;;9.82;3.33;;;12.30;81.70;;;;;;5054122;28;20025;-48
2021/09/29 05:54:20;;;;;;;9.52;2.63;;;12.30;81.70;;;;;;5053208;28;20104;-49
2021/09/29 05:56:47;;;;;;;7.32;2.83;;;12.40;81.50;;;;;;5052451;28;20182;-46
2021/09/29 05:59:13;;;;;;;8.77;3.22;;;12.60;80.70;;;;;;5053015;28;20469;-48
2021/09/29 06:01:38;;;;;;;2.38;1.92;;;12.60;80.90;;;;;;5052932;28;20017;-48
2021/09/29 06:04:04;;;;;;;5.00;2.35;;;12.50;80.90;;;;;;5052176;28;20021;-47
2021/09/29 06:06:30;;;;;;;12.60;2.72;;;12.70;80.70;;;;;;5052993;28;20124;-47
2021/09/29 06:08:56;;;;;;;5.68;2.38;;;12.90;79.70;;;;;;5052720;28;20017;-48
2021/09/29 06:11:22;;;;;;;8.38;2.70;;;12.90;79.80;;;;;;5053371;28;20491;-50
2021/09/29 06:13:48;;;;;;;15.43;4.70;;;13.00;79.70;;;;;;5052449;28;20023;-47
2021/09/29 06:16:15;;;;;;;9.07;2.90;;;13.10;79.10;;;;;;5052506;28;20108;-46
2021/09/29 06:18:41;;;;;;;5.40;2.17;;;13.30;79.00;;;;;;5050903;28;20501;-49
2021/09/29 06:21:07;;;;;;;6.65;2.45;;;13.30;78.90;;;;;;5051027;28;20025;-48
2021/09/29 06:23:38;;;;;;;5.00;2.05;;;13.50;78.00;;;;;;5052545;28;20025;-50
2021/09/29 06:26:04;;;;;;;9.98;2.75;;;13.60;77.70;;;;;;5052279;28;20162;-48
2021/09/29 06:28:34;;;;;;;11.18;2.80;;;13.70;77.20;;;;;;5052454;28;20111;-48
2021/09/29 06:31:00;;;;;;;;;;;13.50;78.00;;;;;;5052927;28;20029;-46
2021/09/29 06:33:26;;;;;;;3.78;2.47;;;13.50;77.90;;;;;;5052023;28;19912;-46
2021/09/29 06:35:52;;;;;;;8.82;2.80;;;13.70;77.50;;;;;;5051987;28;20068;-51
2021/09/29 06:38:18;;;;;;;11.38;2.80;;;13.80;77.70;;;;;;5052319;28;20032;-48
2021/09/29 06:40:43;;;;;;;12.15;2.85;;;13.80;77.20;;;;;;5052526;28;20100;-47
2021/09/29 06:43:09;;;;;;;10.68;3.67;;;13.60;77.70;;;;;;5052733;28;20029;-47
2021/09/29 06:45:35;;;;;;;13.05;2.53;;;13.70;77.90;;;;;;5052464;28;20485;-49
2021/09/29 06:48:01;;;;;;;10.38;3.95;;;13.70;78.20;;;;;;5052534;28;20043;-48
2021/09/29 06:50:27;;;;;;;11.63;3.17;;;13.60;78.00;;;;;;5052872;28;20025;-48
2021/09/29 06:52:53;;;;;;;11.43;3.08;;;13.70;78.70;;;;;;5052327;28;20029;-50
2021/09/29 06:55:19;;;;;;;15.50;3.13;;;13.80;78.30;;;;;;5051150;28;20064;-50
2021/09/29 06:57:44;;;;;;;6.70;2.53;;;13.80;78.30;;;;;;5051660;28;20072;-47
2021/09/29 07:00:11;;;;;;;11.77;3.13;;;13.80;78.10;;;;;;5051841;28;20028;-50
2021/09/29 07:02:43;;;;;;;11.57;2.90;;;13.80;78.80;;;;;;5052113;28;20096;-48
2021/09/29 07:05:09;;;;;;;8.23;2.83;;;13.80;79.10;;;;;;5052473;28;20433;-47
2021/09/29 07:07:35;;;;;;;7.97;3.28;;;13.80;79.90;;;;;;5054858;28;20029;-50
2021/09/29 07:10:02;;;;;;;7.63;2.40;;;13.80;79.20;;;;;;5054210;28;20358;-47
2021/09/29 07:12:28;;;;;;;7.40;2.50;;;13.80;80.30;;;;;;5054451;28;20024;-48
2021/09/29 07:14:54;;;;;;;18.33;3.00;;;13.80;80.80;;;;;;5056276;28;20025;-48
2021/09/29 07:17:20;;;;;;;21.92;4.70;;;13.70;81.60;;;;;;5055885;28;20025;-49
2021/09/29 07:19:47;;;;;;;7.90;2.85;;;13.60;81.80;;;;;;5055445;28;20028;-49
2021/09/29 07:22:13;;;;;;;9.48;2.88;;;13.60;82.00;;;;;;5055548;28;20025;-47
2021/09/29 07:24:39;;;;;;;9.40;2.75;;;13.60;82.20;;;;;;5055717;28;20017;-49
2021/09/29 07:27:04;;;;;;;10.27;3.30;;;13.70;82.40;;;;;;5055664;28;20025;-48
2021/09/29 07:29:30;;;;;;;9.45;2.95;;;13.70;83.60;;;;;;5055417;28;20024;-47
2021/09/29 07:31:56;;;;;;;8.45;3.05;;;13.70;82.70;;;;;;5055160;28;20036;-50
2021/09/29 07:34:23;;;;;;;11.07;2.75;;;13.80;82.20;;;;;;5055661;28;20033;-47
2021/09/29 07:36:49;;;;;;;13.07;2.83;;;13.70;82.50;;;;;;5054940;28;20021;-47
2021/09/29 07:39:15;;;;;;;6.97;2.85;;;13.50;84.10;;;;;;5055065;28;20025;-52
2021/09/29 07:41:42;;;;;;;11.88;2.92;;;13.70;83.60;;;;;;5055141;28;20070;-48
2021/09/29 07:44:09;;;;;;;3.95;2.20;;;13.50;83.70;;;;;;5054028;28;20358;-48
2021/09/29 07:46:35;;;;;;;10.70;3.92;;;13.40;84.10;;;;;;5054976;28;20021;-51
2021/09/29 07:49:03;;;;;;;22.90;4.50;;;13.50;85.10;;;;;;5053884;28;20029;-48
2021/09/29 07:51:29;;;;;;;5.40;2.42;;;13.50;84.80;;;;;;5037539;28;20096;-49
2021/09/29 07:53:55;;;;;;;9.45;3.47;;;13.40;85.10;;;;;;5055279;28;20056;-52
2021/09/29 07:56:20;;;;;;;4.40;2.55;;;13.60;84.20;;;;;;5054797;28;20048;-49
2021/09/29 07:58:46;;;;;;;8.55;3.30;;;13.60;84.30;;;;;;5055224;28;20381;-48
2021/09/29 08:01:12;;;;;;;7.85;3.47;;;13.60;84.60;;;;;;5055063;28;20075;-53
2021/09/29 08:03:41;;;;;;;6.53;3.30;;;13.70;83.70;;;;;;5055096;28;20478;-47
2021/09/29 08:06:07;;;;;;;11.63;3.90;;;13.60;84.30;;;;;;5053465;28;20032;-49
2021/09/29 08:08:33;;;;;;;9.52;3.47;;;13.70;84.60;;;;;;5054790;28;20024;-49
2021/09/29 08:10:59;;;;;;;12.25;3.17;;;13.70;84.50;;;;;;5055093;28;20469;-49
2021/09/29 08:13:25;;;;;;;8.80;2.65;;;13.90;83.70;;;;;;5055045;28;20032;-50
2021/09/29 08:15:51;;;;;;;4.68;3.05;;;14.10;82.90;;;;;;5054174;28;20476;-49
2021/09/29 08:18:16;;;;;;;7.40;3.00;;;14.10;83.50;;;;;;5053821;28;20025;-48
2021/09/29 08:20:43;;;;;;;11.80;2.83;;;14.10;83.10;;;;;;5054679;28;20025;-52
2021/09/29 08:23:16;;;;;;;14.27;2.45;;;14.00;83.50;;;;;;5054709;28;20473;-50
2021/09/29 08:26:20;;;;;;;8.40;3.45;;;13.90;83.50;;;;;;5054738;28;20033;-47
2021/09/29 08:38:51;;;;;;;9.70;3.03;;;14.10;82.80;;;;;;5054563;28;20017;-51
2021/09/29 08:41:37;;;;;;;5.50;2.40;;;14.30;83.20;;;;;;5054393;28;20021;-49
2021/09/29 08:44:13;;;;;;;4.88;2.15;;;14.20;82.30;;;;;;5053902;28;20098;-50
2021/09/29 08:49:17;;;;;;;7.68;2.78;;;13.90;84.00;;;;;;5053836;28;20036;-52
2021/09/29 08:54:51;;;;;;;6.32;1.98;;;14.10;83.70;;;;;;5054087;28;20040;-48
2021/09/29 09:16:59;;;;;;;14.50;2.95;;;13.80;85.20;;;;;;5053695;28;20163;-51
2021/09/29 09:19:29;;;;;;;7.85;3.08;;;13.70;86.70;;;;;;5053192;28;20052;-50
2021/09/29 09:21:58;;;;;;;;;;;13.50;87.80;;;;;;5053509;28;20021;-50
2021/09/29 09:24:36;;;;;;;7.38;2.80;;;13.30;88.00;;;;;;5053444;28;19911;-53
2021/09/29 09:27:05;;;;;;;8.75;4.28;;;13.20;88.70;;;;;;5052244;28;20446;-48
2021/09/29 09:29:30;;;;;;;10.75;3.67;;;13.30;89.10;;;;;;5053513;28;20028;-51
2021/09/29 09:32:07;;;;;;;11.02;4.57;;;13.30;88.60;;;;;;5051659;28;20098;-48
2021/09/29 09:34:33;;;;;;;9.95;4.20;;;13.30;88.90;;;;;;5053288;28;20032;-48
2021/09/29 09:36:59;;;;;;;13.30;3.38;;;13.30;89.80;;;;;;5053314;28;20033;-50
2021/09/29 09:39:27;;;;;;;7.63;3.22;;;13.20;89.70;;;;;;5053434;28;20188;-50
2021/09/29 09:41:58;;;;;;;8.10;3.45;;;13.10;89.50;;;;;;5053520;28;20476;-49
2021/09/29 09:44:34;;;;;;;;;;;13.10;90.10;;;;;;5054024;28;20100;-49
2021/09/29 09:47:12;;;;;;;13.93;3.20;;;13.00;89.90;;;;;;5051897;28;19913;-48
2021/09/29 09:49:55;;;;;;;12.52;5.40;;;12.90;90.20;;;;;;5052956;28;20109;-51
2021/09/29 09:52:41;;;;;;;14.75;5.72;;;13.30;90.60;;;;;;5051266;28;20062;-48
2021/09/29 09:55:17;;;;;;;5.10;2.90;;;13.50;89.10;;;;;;5052619;28;20053;-49
2021/09/29 09:57:44;;;;;;;5.93;2.85;;;13.60;88.80;;;;;;5052764;28;20082;-47
2021/09/29 10:00:14;;;;;;;13.15;4.07;;;13.30;88.50;;;;;;5052542;28;20048;-49
2021/09/29 10:02:48;;;;;;;5.22;3.00;;;13.30;89.20;;;;;;5052619;28;20028;-50
2021/09/29 10:05:16;;;;;;;5.15;3.17;;;13.30;88.70;;;;;;5053441;28;20036;-48
2021/09/29 10:07:43;;;;;;;7.63;4.65;;;13.30;88.90;;;;;;5052801;28;20031;-47
2021/09/29 10:24:03;;;;;;;6.60;3.47;;;13.30;86.50;;;;;;5053343;28;20436;-52
2021/09/29 10:26:28;;;;;;;10.85;4.10;;;13.30;87.30;;;;;;5053193;28;20101;-52
2021/09/29 10:29:06;;;;;;;5.82;3.00;;;13.30;87.30;;;;;;5051407;28;20049;-52
2021/09/29 10:40:19;;;;;;;6.18;3.30;;;12.80;88.00;;;;;;5070390;28;20073;-50
2021/09/29 10:42:58;;;;;;;3.30;2.17;;;12.80;88.20;;;;;;5073479;28;20067;-47
2021/09/29 10:45:50;;;;;;;7.43;2.42;;;12.90;88.20;;;;;;5062000;28;20037;-47
2021/09/29 10:48:33;;;;;;;3.88;2.10;;;12.80;88.20;;;;;;5056483;28;20029;-47
2021/09/29 11:27:33;;;;;;;5.47;2.75;;;12.90;88.30;;;;;;5055771;28;20074;-48
2021/09/29 11:30:17;;;;;;;4.00;3.22;;;12.80;87.80;;;;;;5054372;28;20075;-52
2021/09/29 11:33:06;;;;;;;4.28;3.45;;;12.80;88.50;;;;;;5055731;28;20029;-50
2021/09/29 11:35:45;;;;;;;6.35;3.83;;;12.80;87.80;;;;;;5055495;28;20033;-49
2021/09/29 12:09:41;;;;;;;3.38;3.05;;;12.80;87.70;;;;;;5055364;28;20495;-48
2021/09/29 12:12:23;;;;;;;5.10;4.18;;;12.60;88.30;;;;;;5055319;28;20029;-49
2021/09/29 12:14:54;;;;;;;6.50;3.92;;;12.50;89.40;;;;;;5055316;28;20029;-49
2021/09/29 12:17:40;;;;;;;3.90;2.92;;;12.40;87.80;;;;;;5054944;28;20586;-47
2021/09/29 12:20:21;;;;;;;10.77;4.10;;;12.50;87.10;;;;;;5055692;28;20480;-49
2021/09/29 12:22:51;;;;;;;;;;;12.70;87.30;;;;;;5055440;28;20058;-48
2021/09/29 12:34:13;;;;;;;3.38;2.60;;;13.30;86.00;;;;;;5054281;28;20500;-49
2021/09/29 12:36:38;;;;;;;4.20;2.95;;;13.40;85.20;;;;;;5054905;28;20052;-50
2021/09/29 12:39:20;;;;;;;2.83;2.63;;;13.60;84.70;;;;;;5054431;28;20424;-50
2021/09/29 12:41:52;;;;;;;5.55;2.55;;;13.50;83.60;;;;;;5053273;28;20021;-49
2021/09/29 12:44:18;;;;;;;3.45;2.67;;;13.50;83.20;;;;;;5052803;28;20043;-48
2021/09/29 12:46:50;;;;;;;5.30;2.30;;;13.40;82.40;;;;;;5054126;28;20029;-49
2021/09/29 12:49:21;;;;;;;6.88;3.50;;;13.30;82.40;;;;;;5054226;28;20023;-47
2021/09/29 12:51:57;;;;;;;;;;;13.40;82.80;;;;;;5054981;28;20071;-51
2021/09/29 12:54:24;;;;;;;6.78;2.30;;;13.50;80.40;;;;;;5053945;28;20276;-48
2021/09/29 12:56:50;;;;;;;4.30;2.08;;;13.30;80.80;;;;;;5052606;28;20078;-49
2021/09/29 12:59:16;;;;;;;3.10;2.40;;;13.40;81.60;;;;;;5054189;28;20024;-53
2021/09/29 13:01:42;;;;;;;2.42;2.22;;;13.60;81.10;;;;;;5053744;28;20029;-48
2021/09/29 13:04:08;;;;;;;3.50;2.50;;;13.50;80.50;;;;;;5053596;28;20303;-49
2021/09/29 13:06:33;;;;;;;3.83;2.15;;;13.60;80.10;;;;;;5054151;28;20032;-51
2021/09/29 13:08:59;;;;;;;2.95;2.38;;;13.70;79.80;;;;;;5054472;28;20029;-48
2021/09/29 13:11:25;;;;;;;3.17;2.20;;;13.80;79.90;;;;;;5054625;28;20036;-48
2021/09/29 13:13:50;;;;;;;4.10;2.13;;;14.20;79.00;;;;;;5054385;28;20020;-48
2021/09/29 13:16:16;;;;;;;2.55;2.17;;;14.40;77.70;;;;;;5054176;28;20025;-48
2021/09/29 13:21:27;;;;;;;2.95;0.88;;;12.10;78.00;;;;;;5053985;28;20021;-49
2021/09/29 13:24:20;;;;;;;1.88;1.23;;;11.10;83.30;;;;;;5053944;28;20143;-47
2021/09/29 13:37:37;;;;;;;3.10;1.17;;;10.20;87.40;;;;;;5053087;28;20086;-52
2021/09/29 13:40:04;;;;;;;5.50;1.40;;;10.10;86.80;;;;;;5053442;28;20067;-51
2021/09/29 13:42:29;;;;;;;1.85;1.25;;;10.10;87.40;;;;;;5053327;28;20100;-48
2021/09/29 13:44:55;;;;;;;2.40;1.48;;;10.10;87.40;;;;;;5051682;28;20109;-49
2021/09/29 13:47:21;;;;;;;1.52;1.33;;;10.10;87.20;;;;;;5053355;28;20036;-52
2021/09/29 13:49:47;;;;;;;4.68;1.25;;;10.20;87.80;;;;;;5053196;28;20037;-50
2021/09/29 13:52:16;;;;;;;2.80;1.23;;;10.20;86.60;;;;;;5053212;28;20106;-50
2021/09/29 13:54:42;;;;;;;1.20;1.08;;;10.30;86.40;;;;;;5052712;28;20048;-52
2021/09/29 13:58:13;;;;;;;7.43;1.50;;;10.40;85.70;;;;;;5052918;28;20032;-49
2021/09/29 14:00:20;;;;;;;3.92;1.48;;;10.50;86.20;;;;;;5056540;28;20033;-48
2021/09/29 14:29:56;;;;;;;5.00;1.67;;;12.00;83.40;;;;;;5052992;28;20059;-48
2021/09/29 14:32:25;;;;;;;3.38;1.30;;;12.40;82.20;;;;;;5051202;28;20557;-49
2021/09/29 14:34:51;;;;;;;5.82;1.70;;;12.30;82.90;;;;;;5052717;28;20029;-49
2021/09/29 14:37:18;;;;;;;5.07;1.55;;;12.50;81.90;;;;;;5052494;28;20029;-50
2021/09/29 14:39:45;;;;;;;4.68;1.58;;;12.70;82.10;;;;;;5052664;28;20362;-48
2021/09/29 14:42:11;;;;;;;5.22;2.50;;;12.80;81.30;;;;;;5051255;28;20112;-48
2021/09/29 14:44:37;;;;;;;3.50;2.00;;;12.80;82.20;;;;;;5051444;28;20447;-50
2021/09/29 14:47:13;;;;;;;3.08;1.23;;;12.80;81.70;;;;;;5052448;28;20028;-49
2021/09/29 14:49:40;;;;;;;2.40;1.42;;;12.90;82.00;;;;;;5052207;28;20099;-49
2021/09/29 14:52:06;;;;;;;3.63;1.85;;;13.00;81.50;;;;;;5052679;28;20025;-52
2021/09/29 14:54:32;;;;;;;4.85;1.58;;;13.00;81.50;;;;;;5052286;28;20090;-48
2021/09/29 14:56:58;;;;;;;4.00;1.65;;;13.00;81.30;;;;;;5052303;28;20033;-49
2021/09/29 14:59:24;;;;;;;4.65;1.83;;;13.00;81.50;;;;;;5052697;28;20025;-48
2021/09/29 15:01:50;;;;;;;18.00;3.30;;;13.00;81.30;;;;;;5050955;28;20036;-48
2021/09/29 15:04:16;;;;;;;6.53;1.65;;;12.90;81.10;;;;;;5051261;28;20025;-49
2021/09/29 15:06:42;;;;;;;7.93;2.25;;;12.90;81.30;;;;;;5050776;28;20067;-49
2021/09/29 15:09:07;;;;;;;3.20;1.63;;;12.70;82.10;;;;;;5052166;28;20033;-47
2021/09/29 15:11:34;;;;;;;6.07;2.17;;;12.70;82.70;;;;;;5052604;28;20029;-51
2021/09/29 15:14:15;;;;;;;10.45;1.90;;;12.50;82.50;;;;;;5051064;28;20039;-48
2021/09/29 15:16:56;;;;;;;5.28;2.00;;;12.50;82.50;;;;;;5052922;28;20020;-47
2021/09/29 15:19:41;;;;;;;5.68;1.98;;;12.40;82.90;;;;;;5051413;28;20025;-49
2021/09/29 15:24:43;;;;;;;7.60;2.42;;;12.30;83.30;;;;;;5052038;28;20362;-47
2021/09/29 15:30:06;;;;;;;3.80;1.90;;;12.30;83.30;;;;;;5056653;28;20062;-50
2021/09/29 15:51:49;;;;;;;3.47;1.35;;;13.20;79.40;;;;;;5055533;28;20020;-47
2021/09/29 15:54:19;;;;;;;2.40;1.55;;;13.20;78.70;;;;;;5055554;28;20385;-51
2021/09/29 15:56:54;;;;;;;5.80;1.63;;;13.20;78.40;;;;;;5055197;28;20040;-50
2021/09/29 16:01:58;;;;;;;6.88;1.55;;;13.20;76.90;;;;;;5055617;28;20120;-48
2021/09/29 16:04:30;;;;;;;5.78;1.20;;;13.20;77.10;;;;;;5053516;28;20025;-51
2021/09/29 16:07:02;;;;;;;3.58;1.00;;;13.10;76.90;;;;;;5053671;28;20025;-48
2021/09/29 16:31:10;;;;;;;9.30;1.85;;;12.50;78.00;;;;;;5054626;28;20116;-48
2021/09/29 16:36:16;;;;;;;4.30;1.20;;;12.50;78.30;;;;;;5054501;28;20029;-47
2021/09/29 16:38:46;;;;;;;1.98;1.40;;;12.60;77.90;;;;;;5053561;28;20497;-50
2021/09/29 16:41:14;;;;;;;2.38;1.08;;;12.70;77.10;;;;;;5055082;28;20021;-50